Time;durP1;ratioP1;P1;durP2;ratioP2;P2;SDS_P1;SDS_P2;PMS_P1;PMS_P2;Temp;Humidity;BMP_temperature;BMP_pressure;BME280_temperature;BME280_humidity;BME280_pressure;Samples;Min_cycle;Max_cycle;Signal;HPM_P1;HPM_P2
2023/09/03 00:01:56;;;;;;;5.87;4.17;;;14.00;99.90;;;;;;5020815;28;20214;-85
2023/09/03 00:04:22;;;;;;;6.37;3.77;;;14.00;99.90;;;;;;5038472;28;20214;-83
2023/09/03 00:06:47;;;;;;;7.80;4.27;;;14.00;99.90;;;;;;5038812;28;20296;-84
2023/09/03 00:09:13;;;;;;;6.13;3.80;;;14.00;99.90;;;;;;5037768;28;20650;-84
2023/09/03 00:11:39;;;;;;;7.20;4.93;;;14.00;99.90;;;;;;5038640;28;20197;-86
2023/09/03 00:14:05;;;;;;;6.57;4.53;;;14.00;99.90;;;;;;5038159;28;20287;-86
2023/09/03 00:16:31;;;;;;;6.43;4.43;;;14.10;99.90;;;;;;5021423;28;20340;-86
2023/09/03 00:18:57;;;;;;;6.30;3.80;;;14.10;99.90;;;;;;5053290;28;20221;-84
2023/09/03 00:21:22;;;;;;;6.97;4.27;;;14.10;99.90;;;;;;5039324;28;20182;-83
2023/09/03 00:23:50;;;;;;;5.67;4.33;;;14.10;99.90;;;;;;5053945;28;20269;-85
2023/09/03 00:26:18;;;;;;;5.43;4.03;;;14.10;99.90;;;;;;5037932;28;20222;-85
2023/09/03 00:28:43;;;;;;;5.83;4.20;;;14.10;99.90;;;;;;5052374;28;20294;-85
2023/09/03 00:31:09;;;;;;;5.83;3.63;;;14.00;99.90;;;;;;5038104;28;20210;-85
2023/09/03 00:33:36;;;;;;;5.27;3.77;;;14.00;99.90;;;;;;5051035;28;20812;-86
2023/09/03 00:36:03;;;;;;;11.40;4.80;;;14.00;99.90;;;;;;5053942;28;20197;-84
2023/09/03 00:38:29;;;;;;;7.03;4.77;;;14.10;99.90;;;;;;5038505;28;20670;-85
2023/09/03 00:40:55;;;;;;;7.17;4.60;;;14.10;99.90;;;;;;5053471;28;20256;-85
2023/09/03 00:43:21;;;;;;;7.70;4.10;;;14.00;99.90;;;;;;5038498;28;20698;-86
2023/09/03 00:45:48;;;;;;;5.40;3.93;;;14.00;99.90;;;;;;5038179;28;20260;-85
2023/09/03 00:48:16;;;;;;;13.73;4.10;;;14.00;99.90;;;;;;5038454;28;20282;-84
2023/09/03 00:50:45;;;;;;;5.60;3.87;;;13.90;99.90;;;;;;5038094;28;20186;-85
2023/09/03 00:53:11;;;;;;;4.80;2.97;;;13.80;99.90;;;;;;5038321;28;20218;-85
2023/09/03 00:55:37;;;;;;;5.57;3.07;;;13.70;99.90;;;;;;5053337;28;20304;-85
2023/09/03 00:58:07;;;;;;;5.27;3.60;;;13.60;99.90;;;;;;5020271;28;20225;-85
2023/09/03 01:00:35;;;;;;;4.80;3.97;;;13.60;99.90;;;;;;5037952;28;20233;-86
2023/09/03 01:03:02;;;;;;;5.17;3.30;;;13.70;99.90;;;;;;5053613;28;20193;-84
2023/09/03 01:05:28;;;;;;;4.90;3.33;;;13.60;99.90;;;;;;5053067;28;20222;-85
2023/09/03 01:07:57;;;;;;;5.10;4.60;;;13.60;99.90;;;;;;5037698;28;20249;-85
2023/09/03 01:10:28;;;;;;;7.97;4.43;;;13.70;99.90;;;;;;5037618;28;20218;-83
2023/09/03 01:13:20;;;;;;;6.13;3.83;;;13.90;99.90;;;;;;5037277;28;20225;-86
2023/09/03 01:15:49;;;;;;;4.40;3.57;;;14.00;99.90;;;;;;5056459;28;20324;-83
2023/09/03 01:18:23;;;;;;;8.53;5.40;;;14.10;99.90;;;;;;5056351;28;20194;-83
2023/09/03 01:21:19;;;;;;;7.00;4.13;;;14.10;99.90;;;;;;5041845;28;20284;-84
2023/09/03 01:24:05;;;;;;;4.90;3.77;;;14.10;99.90;;;;;;5040909;28;20214;-85
2023/09/03 01:26:37;;;;;;;6.50;4.80;;;14.10;99.90;;;;;;5041750;28;20332;-83
2023/09/03 01:29:04;;;;;;;6.30;4.80;;;14.10;99.90;;;;;;5040763;28;20839;-85
2023/09/03 01:31:30;;;;;;;7.20;5.57;;;14.20;99.90;;;;;;5040976;28;20582;-86
2023/09/03 01:34:02;;;;;;;6.43;4.43;;;14.20;99.90;;;;;;5056895;28;20308;-85
2023/09/03 01:36:32;;;;;;;7.47;5.00;;;14.20;99.90;;;;;;5055833;28;20201;-85
2023/09/03 01:38:59;;;;;;;16.27;5.13;;;14.10;99.90;;;;;;5024161;28;20213;-83
2023/09/03 01:41:24;;;;;;;6.50;4.77;;;14.20;99.90;;;;;;5038175;28;20221;-86
2023/09/03 01:43:50;;;;;;;9.30;5.57;;;14.20;99.90;;;;;;5022884;28;20245;-85
2023/09/03 01:46:50;;;;;;;9.60;5.00;;;14.20;99.90;;;;;;5056790;28;20259;-84
2023/09/03 01:49:18;;;;;;;7.90;4.43;;;14.20;99.90;;;;;;5040663;28;20225;-83
2023/09/03 01:51:56;;;;;;;8.60;5.23;;;14.20;99.90;;;;;;5040532;28;20225;-85
2023/09/03 01:54:31;;;;;;;9.13;5.53;;;14.20;99.90;;;;;;5023049;28;20201;-85
2023/09/03 01:57:25;;;;;;;9.07;6.67;;;14.20;99.90;;;;;;5022660;28;20654;-85
2023/09/03 01:59:57;;;;;;;8.67;6.27;;;14.10;99.90;;;;;;5019671;28;20221;-84
2023/09/03 02:02:24;;;;;;;10.80;7.23;;;14.00;99.90;;;;;;5040677;28;20508;-83
2023/09/03 02:04:51;;;;;;;10.83;6.47;;;14.00;99.90;;;;;;5022877;28;20271;-84
2023/09/03 02:07:17;;;;;;;10.80;5.13;;;14.00;99.90;;;;;;5039882;28;20218;-85
2023/09/03 02:09:42;;;;;;;7.40;6.50;;;14.00;99.90;;;;;;5022620;28;20229;-85
2023/09/03 02:12:09;;;;;;;8.23;5.40;;;14.00;99.90;;;;;;5023693;28;20190;-85
2023/09/03 02:14:35;;;;;;;9.53;5.13;;;14.00;99.90;;;;;;5003484;28;20230;-85
2023/09/03 02:17:01;;;;;;;8.43;5.33;;;14.00;99.90;;;;;;5034238;28;20596;-85
2023/09/03 02:19:27;;;;;;;10.43;5.50;;;14.00;99.90;;;;;;4996230;28;20309;-86
2023/09/03 02:21:52;;;;;;;8.83;6.20;;;14.10;99.90;;;;;;5040324;28;20293;-85
2023/09/03 02:24:18;;;;;;;10.47;5.83;;;14.10;99.90;;;;;;5039566;28;20221;-84
2023/09/03 02:26:45;;;;;;;11.57;5.03;;;14.10;99.90;;;;;;5002945;28;20353;-84
2023/09/03 02:29:11;;;;;;;8.37;5.20;;;14.00;99.90;;;;;;5036276;28;20222;-84
2023/09/03 02:31:37;;;;;;;8.13;4.40;;;13.90;99.90;;;;;;5044200;28;20210;-85
2023/09/03 02:34:05;;;;;;;7.97;5.60;;;13.80;99.90;;;;;;4985553;28;20213;-85
2023/09/03 02:36:31;;;;;;;5.87;4.43;;;13.70;99.90;;;;;;5002552;28;20209;-85
2023/09/03 02:39:01;;;;;;;8.97;6.53;;;13.60;99.90;;;;;;5003007;28;20199;-84
2023/09/03 02:41:29;;;;;;;7.20;5.17;;;13.50;99.90;;;;;;5005604;28;20214;-86
2023/09/03 02:43:57;;;;;;;5.27;4.43;;;13.30;99.90;;;;;;5007793;28;20214;-85
2023/09/03 02:46:23;;;;;;;5.23;4.40;;;13.20;99.90;;;;;;5014346;28;20244;-85
2023/09/03 02:48:49;;;;;;;5.17;4.10;;;13.10;99.90;;;;;;4999956;28;20226;-85
2023/09/03 02:51:15;;;;;;;7.03;4.70;;;12.90;99.90;;;;;;5003535;28;20183;-84
2023/09/03 02:53:42;;;;;;;11.17;5.80;;;13.10;99.90;;;;;;5023475;28;20186;-84
2023/09/03 02:56:08;;;;;;;6.93;4.37;;;13.10;99.90;;;;;;5006456;28;20256;-84
2023/09/03 02:58:34;;;;;;;15.07;5.23;;;13.30;99.90;;;;;;5013925;28;20210;-83
2023/09/03 03:01:06;;;;;;;8.77;5.57;;;13.40;99.90;;;;;;5015687;28;20233;-85
2023/09/03 03:03:31;;;;;;;7.00;4.77;;;13.60;99.90;;;;;;5022170;28;20226;-86
2023/09/03 03:05:57;;;;;;;9.20;5.17;;;13.60;99.90;;;;;;5054858;28;20214;-84
2023/09/03 03:08:23;;;;;;;9.83;5.60;;;13.70;99.90;;;;;;5005105;28;20571;-85
2023/09/03 03:10:50;;;;;;;9.70;5.90;;;13.70;99.90;;;;;;5015749;28;20224;-85
2023/09/03 03:13:16;;;;;;;13.47;6.40;;;13.80;99.90;;;;;;5012418;28;20348;-83
2023/09/03 03:15:42;;;;;;;6.67;5.03;;;13.80;99.90;;;;;;5005398;28;20251;-85
2023/09/03 03:18:08;;;;;;;8.30;5.03;;;13.70;99.90;;;;;;5005801;28;20669;-84
2023/09/03 03:20:34;;;;;;;7.10;5.17;;;13.70;99.90;;;;;;5002295;28;20284;-84
2023/09/03 03:23:00;;;;;;;6.57;4.00;;;13.60;99.90;;;;;;5000460;28;21027;-86
2023/09/03 03:25:26;;;;;;;11.30;5.80;;;13.60;99.90;;;;;;5011760;28;20237;-86
2023/09/03 03:27:51;;;;;;;7.27;5.63;;;13.60;99.90;;;;;;4984868;28;20248;-86
2023/09/03 03:30:17;;;;;;;7.13;4.33;;;13.60;99.90;;;;;;5016354;28;20237;-86
2023/09/03 03:32:43;;;;;;;5.87;3.97;;;13.70;99.90;;;;;;5002002;28;20261;-85
2023/09/03 03:35:09;;;;;;;7.53;4.90;;;13.80;99.90;;;;;;5035157;28;20703;-84
2023/09/03 03:37:35;;;;;;;16.37;5.27;;;13.80;99.90;;;;;;5009694;28;20218;-84
2023/09/03 03:40:00;;;;;;;7.13;4.40;;;13.80;99.90;;;;;;5009091;28;20221;-86
2023/09/03 03:42:26;;;;;;;7.33;4.40;;;13.70;99.90;;;;;;5019387;28;20292;-85
2023/09/03 03:44:52;;;;;;;5.87;3.07;;;13.60;99.90;;;;;;5001927;28;20313;-85
2023/09/03 03:47:18;;;;;;;7.40;5.00;;;13.50;99.90;;;;;;5036494;28;20594;-86
2023/09/03 03:49:43;;;;;;;5.70;4.13;;;13.40;99.90;;;;;;5008256;28;20226;-84
2023/09/03 03:52:09;;;;;;;7.40;3.90;;;13.30;99.90;;;;;;4992452;28;20228;-85
2023/09/03 03:54:35;;;;;;;5.37;3.90;;;13.30;99.90;;;;;;5035196;28;20781;-84
2023/09/03 03:57:01;;;;;;;6.87;4.53;;;13.20;99.90;;;;;;5034687;28;20209;-84
2023/09/03 03:59:28;;;;;;;5.03;3.27;;;13.20;99.90;;;;;;5019574;28;20667;-86
2023/09/03 04:01:53;;;;;;;4.97;3.63;;;13.20;99.90;;;;;;5024101;28;20288;-85
2023/09/03 04:04:21;;;;;;;7.13;4.00;;;13.20;99.90;;;;;;5010806;28;20652;-86
2023/09/03 04:06:47;;;;;;;4.53;3.07;;;13.10;99.90;;;;;;5016452;28;20230;-84
2023/09/03 04:09:13;;;;;;;4.10;3.37;;;13.10;99.90;;;;;;5018251;28;20241;-84
2023/09/03 04:11:38;;;;;;;7.83;4.23;;;13.10;99.90;;;;;;5039527;28;20194;-85
2023/09/03 04:14:04;;;;;;;6.13;4.03;;;13.10;99.90;;;;;;5004502;28;20317;-85
2023/09/03 04:16:30;;;;;;;6.33;3.80;;;13.20;99.90;;;;;;5011828;28;20269;-86
2023/09/03 04:18:56;;;;;;;8.27;5.93;;;13.30;99.90;;;;;;5032623;28;20218;-85
2023/09/03 04:21:21;;;;;;;5.70;3.03;;;13.40;99.90;;;;;;4987055;28;20214;-86
2023/09/03 04:23:47;;;;;;;8.63;5.10;;;13.50;99.90;;;;;;4999378;28;20194;-85
2023/09/03 04:26:13;;;;;;;5.87;3.80;;;13.70;99.90;;;;;;4987576;28;20226;-83
2023/09/03 04:28:39;;;;;;;5.77;4.30;;;13.90;99.90;;;;;;5029657;28;20656;-85
2023/09/03 04:31:08;;;;;;;8.00;4.70;;;14.00;99.90;;;;;;5029534;28;20214;-85
2023/09/03 04:33:35;;;;;;;7.37;4.43;;;14.00;99.90;;;;;;5004658;28;20252;-86
2023/09/03 04:36:02;;;;;;;7.97;4.60;;;14.10;99.90;;;;;;5021599;28;20201;-84
2023/09/03 04:38:28;;;;;;;5.97;4.13;;;14.00;99.90;;;;;;4985814;28;20214;-84
2023/09/03 04:40:55;;;;;;;5.83;3.83;;;14.10;99.90;;;;;;5047715;28;20221;-86
2023/09/03 04:43:23;;;;;;;8.07;5.10;;;14.10;99.90;;;;;;5011145;28;21400;-85
2023/09/03 04:45:50;;;;;;;7.67;4.70;;;14.10;99.90;;;;;;5023255;28;20225;-84
2023/09/03 04:48:17;;;;;;;7.20;4.90;;;14.20;99.90;;;;;;5037895;28;20870;-84
2023/09/03 04:50:43;;;;;;;9.13;5.00;;;14.20;99.90;;;;;;5023557;28;20233;-84
2023/09/03 04:53:11;;;;;;;6.93;5.47;;;14.20;99.90;;;;;;5001014;28;20234;-84
2023/09/03 04:55:37;;;;;;;7.90;4.90;;;14.20;99.90;;;;;;5033731;28;20364;-86
2023/09/03 04:58:03;;;;;;;10.83;4.20;;;14.30;99.90;;;;;;5017174;28;20226;-86
2023/09/03 05:00:30;;;;;;;10.67;6.17;;;14.30;99.90;;;;;;5024152;28;20185;-83
2023/09/03 05:02:56;;;;;;;5.67;4.03;;;14.40;99.90;;;;;;5008762;28;20180;-87
2023/09/03 05:05:22;;;;;;;7.07;4.70;;;14.40;99.90;;;;;;5024207;28;20215;-85
2023/09/03 05:07:48;;;;;;;13.77;4.97;;;14.40;99.90;;;;;;5035744;28;21141;-84
2023/09/03 05:10:14;;;;;;;7.63;5.20;;;14.50;99.90;;;;;;5015232;28;20219;-85
2023/09/03 05:12:40;;;;;;;12.60;5.53;;;14.50;99.90;;;;;;5026360;28;20210;-86
2023/09/03 05:15:10;;;;;;;6.87;4.40;;;14.50;99.90;;;;;;5025098;28;20235;-85
2023/09/03 05:17:37;;;;;;;10.13;5.70;;;14.60;99.90;;;;;;4995709;28;20301;-84
2023/09/03 05:20:03;;;;;;;7.67;4.63;;;14.70;99.90;;;;;;5000966;28;20222;-86
2023/09/03 05:22:29;;;;;;;6.50;3.83;;;14.80;99.90;;;;;;4999007;28;20578;-86
2023/09/03 05:24:55;;;;;;;10.33;5.67;;;14.80;99.90;;;;;;4998161;28;20241;-85
2023/09/03 05:27:20;;;;;;;6.97;3.97;;;14.80;99.90;;;;;;5001388;28;20242;-85
2023/09/03 05:29:46;;;;;;;10.87;5.77;;;14.80;99.90;;;;;;5002000;28;20195;-84
2023/09/03 05:32:12;;;;;;;8.73;5.13;;;14.90;99.90;;;;;;5018485;28;21096;-84
2023/09/03 05:34:38;;;;;;;9.17;5.57;;;14.90;99.90;;;;;;5009530;28;21139;-83
2023/09/03 05:37:03;;;;;;;16.13;6.13;;;14.90;99.90;;;;;;5001626;28;20223;-87
2023/09/03 05:39:29;;;;;;;10.07;5.40;;;15.00;99.90;;;;;;4987857;28;20191;-86
2023/09/03 05:41:55;;;;;;;8.67;5.17;;;15.00;99.90;;;;;;5021225;28;20674;-86
2023/09/03 05:44:21;;;;;;;8.37;4.77;;;15.00;99.90;;;;;;5003590;28;20216;-85
2023/09/03 05:46:47;;;;;;;14.50;5.80;;;15.10;99.90;;;;;;5029007;28;20223;-83
2023/09/03 05:49:12;;;;;;;10.90;4.60;;;15.20;99.90;;;;;;5011590;28;20712;-85
2023/09/03 05:51:40;;;;;;;9.63;6.10;;;15.30;99.90;;;;;;5003486;28;20218;-84
2023/09/03 05:54:07;;;;;;;8.90;5.20;;;15.40;99.90;;;;;;5019659;28;20187;-82
2023/09/03 05:56:34;;;;;;;7.37;6.13;;;15.60;99.90;;;;;;4999529;28;20231;-84
2023/09/03 05:59:05;;;;;;;7.00;5.07;;;15.80;99.90;;;;;;5001042;28;20286;-83
2023/09/03 06:01:31;;;;;;;7.80;4.47;;;16.00;99.90;;;;;;5010500;28;20721;-84
2023/09/03 06:03:58;;;;;;;10.27;5.57;;;16.30;99.90;;;;;;5029000;28;20208;-83
2023/09/03 06:06:24;;;;;;;9.07;5.50;;;16.50;99.90;;;;;;4999458;28;20265;-82
2023/09/03 06:08:50;;;;;;;7.47;4.87;;;16.70;99.90;;;;;;4983175;28;20219;-83
2023/09/03 06:11:16;;;;;;;9.30;5.83;;;16.90;99.90;;;;;;4999521;28;20231;-84
2023/09/03 06:13:41;;;;;;;9.40;5.57;;;17.30;99.90;;;;;;5007483;28;20765;-85
2023/09/03 06:16:07;;;;;;;11.70;5.03;;;17.90;99.90;;;;;;4998513;28;20304;-83
2023/09/03 06:18:33;;;;;;;8.57;5.27;;;18.80;99.90;;;;;;5014690;28;20222;-86
2023/09/03 06:20:59;;;;;;;6.10;4.77;;;20.10;99.90;;;;;;5020525;28;20190;-84
2023/09/03 06:23:26;;;;;;;5.53;4.50;;;21.00;99.90;;;;;;5021728;28;20213;-87
2023/09/03 06:25:51;;;;;;;6.23;4.27;;;20.70;99.90;;;;;;5026253;28;20234;-87
2023/09/03 06:28:17;;;;;;;6.73;4.40;;;20.40;99.90;;;;;;4970910;28;20264;-87
2023/09/03 06:30:43;;;;;;;5.10;4.07;;;20.10;99.90;;;;;;5035993;28;20219;-85
2023/09/03 06:33:11;;;;;;;3.90;3.50;;;20.00;99.90;;;;;;5002804;28;20396;-86
2023/09/03 06:35:37;;;;;;;6.50;4.03;;;19.50;99.90;;;;;;5040033;28;20241;-85
2023/09/03 06:38:03;;;;;;;4.73;3.77;;;19.60;99.90;;;;;;5022201;28;20312;-84
2023/09/03 06:40:29;;;;;;;8.80;4.43;;;19.60;99.90;;;;;;5039507;28;20218;-84
2023/09/03 06:42:54;;;;;;;6.23;4.37;;;19.70;99.90;;;;;;5039701;28;20213;-84
2023/09/03 06:45:20;;;;;;;4.57;3.47;;;19.30;99.90;;;;;;5005134;28;21368;-84
2023/09/03 06:47:46;;;;;;;6.33;4.73;;;19.70;99.90;;;;;;5037695;28;20571;-85
2023/09/03 06:50:13;;;;;;;5.40;3.70;;;19.70;99.90;;;;;;5020177;28;20213;-84
2023/09/03 06:52:39;;;;;;;8.20;4.37;;;19.90;99.90;;;;;;5018808;28;20288;-84
2023/09/03 06:55:05;;;;;;;7.70;4.53;;;20.70;99.90;;;;;;5019389;28;20218;-84
2023/09/03 06:57:32;;;;;;;6.37;4.63;;;22.00;99.90;;;;;;5053946;28;20213;-85
2023/09/03 06:59:58;;;;;;;4.40;3.80;;;24.00;99.90;;;;;;5022681;28;20194;-85
2023/09/03 07:02:25;;;;;;;5.50;3.57;;;26.20;99.90;;;;;;5004810;28;20218;-85
2023/09/03 07:04:51;;;;;;;4.23;3.20;;;27.60;99.90;;;;;;5014460;28;20281;-84
2023/09/03 07:07:17;;;;;;;3.73;3.30;;;27.50;99.90;;;;;;5017121;28;20218;-90
2023/09/03 07:09:47;;;;;;;5.80;3.05;;;27.20;99.90;;;;;;5034358;28;20230;-86
2023/09/03 07:12:12;;;;;;;4.65;2.95;;;26.40;99.90;;;;;;5008832;28;20272;-89
2023/09/03 07:14:38;;;;;;;4.88;3.30;;;26.10;99.90;;;;;;5007555;28;20238;-88
2023/09/03 07:17:04;;;;;;;5.00;3.15;;;25.90;99.90;;;;;;5020007;28;20728;-89
2023/09/03 07:19:30;;;;;;;3.20;2.72;;;25.30;99.90;;;;;;5003194;28;20336;-88
2023/09/03 07:21:56;;;;;;;4.55;3.17;;;24.90;99.90;;;;;;5016936;28;20714;-88
2023/09/03 07:24:22;;;;;;;4.32;3.92;;;24.40;99.90;;;;;;5026354;28;20230;-88
2023/09/03 07:26:48;;;;;;;4.25;3.80;;;25.10;99.90;;;;;;5008538;28;20229;-87
2023/09/03 07:29:14;;;;;;;3.90;3.30;;;26.00;99.90;;;;;;5002486;28;20246;-88
2023/09/03 07:31:41;;;;;;;3.78;3.45;;;27.30;99.90;;;;;;5020028;28;20774;-86
2023/09/03 07:34:10;;;;;;;3.17;2.60;;;27.70;99.90;;;;;;5034308;28;20748;-88
2023/09/03 07:36:37;;;;;;;2.75;2.53;;;27.90;99.90;;;;;;5024086;28;20672;-90
2023/09/03 07:39:05;;;;;;;4.05;3.15;;;27.30;99.90;;;;;;4994616;28;20218;-88
2023/09/03 07:41:32;;;;;;;3.70;2.90;;;26.50;99.90;;;;;;5028775;28;20416;-83
2023/09/03 07:43:59;;;;;;;4.53;3.25;;;25.80;99.90;;;;;;5002483;28;20191;-88
2023/09/03 07:46:25;;;;;;;3.90;3.50;;;25.60;99.90;;;;;;5020959;28;20557;-88
2023/09/03 07:48:51;;;;;;;3.75;3.20;;;25.40;99.90;;;;;;5038588;28;20283;-87
2023/09/03 07:51:18;;;;;;;3.67;3.30;;;26.00;99.90;;;;;;5017251;28;20214;-87
2023/09/03 07:53:44;;;;;;;5.90;3.67;;;27.20;99.90;;;;;;5018322;28;20233;-88
2023/09/03 07:56:09;;;;;;;4.10;3.20;;;27.50;99.90;;;;;;5037115;28;20191;-88
2023/09/03 07:58:36;;;;;;;5.80;3.00;;;28.00;99.90;;;;;;5020961;28;20247;-88
2023/09/03 08:01:01;;;;;;;3.22;2.92;;;28.10;99.90;;;;;;5018994;28;20229;-84
2023/09/03 08:03:34;;;;;;;3.97;2.47;;;29.00;99.90;;;;;;5016677;28;20210;-87
2023/09/03 08:06:01;;;;;;;4.05;3.13;;;28.70;99.90;;;;;;5042327;28;20222;-84
2023/09/03 08:08:28;;;;;;;2.60;2.40;;;29.20;99.90;;;;;;5034250;28;20218;-85
2023/09/03 08:10:55;;;;;;;3.33;3.03;;;29.10;99.90;;;;;;5018762;28;20288;-85
2023/09/03 08:13:20;;;;;;;3.15;2.72;;;29.20;99.90;;;;;;5020875;28;20740;-85
2023/09/03 08:15:46;;;;;;;3.03;2.67;;;29.30;99.90;;;;;;4988331;28;20219;-87
2023/09/03 08:18:12;;;;;;;5.97;3.05;;;30.10;99.90;;;;;;4980486;28;20677;-85
2023/09/03 08:20:38;;;;;;;3.47;3.10;;;29.90;99.90;;;;;;5032957;28;20226;-86
2023/09/03 08:23:04;;;;;;;3.67;2.85;;;29.80;99.90;;;;;;5018413;28;20683;-84
2023/09/03 08:25:30;;;;;;;5.97;2.72;;;28.90;99.90;;;;;;5007709;28;20248;-86
2023/09/03 08:27:56;;;;;;;3.67;2.55;;;28.80;99.90;;;;;;5005965;28;21062;-84
2023/09/03 08:30:22;;;;;;;3.97;3.08;;;29.00;99.90;;;;;;5031303;28;20205;-84
2023/09/03 08:32:47;;;;;;;3.72;2.85;;;30.00;99.90;;;;;;5016154;28;20241;-83
2023/09/03 08:35:16;;;;;;;2.70;2.50;;;30.00;99.90;;;;;;5004598;28;20844;-85
2023/09/03 08:37:42;;;;;;;3.05;2.33;;;30.30;99.90;;;;;;5024989;28;20186;-84
2023/09/03 08:40:08;;;;;;;4.57;2.17;;;31.20;99.90;;;;;;4989404;28;20299;-85
2023/09/03 08:42:35;;;;;;;4.00;2.55;;;30.90;99.90;;;;;;5034751;28;20221;-85
2023/09/03 08:45:04;;;;;;;3.30;2.38;;;31.10;99.90;;;;;;4998698;28;20619;-84
2023/09/03 08:47:31;;;;;;;2.88;2.60;;;30.20;99.90;;;;;;5009973;28;20225;-84
2023/09/03 08:49:59;;;;;;;2.53;1.98;;;30.00;99.90;;;;;;5006768;28;20361;-84
2023/09/03 08:52:26;;;;;;;5.25;2.38;;;29.30;99.90;;;;;;5022982;28;20233;-84
2023/09/03 08:54:53;;;;;;;2.40;2.00;;;28.90;99.90;;;;;;5036534;28;20309;-85
2023/09/03 08:57:19;;;;;;;2.55;2.35;;;28.20;99.90;;;;;;5013478;28;20215;-84
2023/09/03 08:59:45;;;;;;;3.03;2.25;;;27.30;99.90;;;;;;5011550;28;20275;-82
2023/09/03 09:02:14;;;;;;;7.22;2.67;;;27.30;99.90;;;;;;5004703;28;20707;-85
2023/09/03 09:04:40;;;;;;;2.55;2.05;;;28.00;99.90;;;;;;5022332;28;20179;-85
2023/09/03 09:07:08;;;;;;;2.25;2.08;;;28.70;99.90;;;;;;5022849;28;20212;-83
2023/09/03 09:09:35;;;;;;;4.32;2.08;;;28.10;99.90;;;;;;5024546;28;20215;-85
2023/09/03 09:12:24;;;;;;;3.33;1.67;;;29.50;99.90;;;;;;5016702;28;20223;-83
2023/09/03 09:14:59;;;;;;;2.10;1.90;;;29.60;99.90;;;;;;5010853;28;20210;-84
2023/09/03 09:17:25;;;;;;;2.38;2.03;;;29.30;99.90;;;;;;5017191;28;20618;-85
2023/09/03 09:19:50;;;;;;;2.65;1.88;;;28.50;99.90;;;;;;5002653;28;20179;-84
2023/09/03 09:22:16;;;;;;;2.42;1.90;;;27.50;99.90;;;;;;5005163;28;21057;-87
2023/09/03 09:24:46;;;;;;;2.45;2.08;;;27.40;99.90;;;;;;5009004;28;20218;-85
2023/09/03 09:27:14;;;;;;;1.50;1.40;;;27.10;99.90;;;;;;5014545;28;20240;-87
2023/09/03 09:29:40;;;;;;;1.75;1.65;;;25.80;99.90;;;;;;5033703;28;20215;-85
2023/09/03 09:32:24;;;;;;;6.00;1.77;;;25.00;99.90;;;;;;5005037;28;20190;-83
2023/09/03 09:34:50;;;;;;;1.60;1.30;;;25.90;99.90;;;;;;5039676;28;20212;-82
2023/09/03 09:37:16;;;;;;;4.00;2.08;;;26.90;99.90;;;;;;4973213;28;21105;-86
2023/09/03 09:39:47;;;;;;;1.55;1.20;;;28.20;99.90;;;;;;5051104;28;20387;-83
2023/09/03 09:42:18;;;;;;;1.92;1.50;;;29.40;99.90;;;;;;4996530;28;21047;-85
2023/09/03 09:44:56;;;;;;;1.73;1.60;;;27.90;99.90;;;;;;5019199;28;20268;-81
2023/09/03 09:47:22;;;;;;;3.42;1.50;;;26.60;99.90;;;;;;5022053;28;20308;-82
2023/09/03 09:49:49;;;;;;;2.40;1.40;;;26.60;99.90;;;;;;5020514;28;20178;-84
2023/09/03 09:52:15;;;;;;;2.55;1.00;;;27.80;99.90;;;;;;5014972;28;20380;-83
2023/09/03 09:54:42;;;;;;;3.17;1.10;;;28.30;99.90;;;;;;5033949;28;20257;-85
2023/09/03 09:57:27;;;;;;;2.45;1.20;;;29.20;99.90;;;;;;5027700;28;20219;-82
2023/09/03 10:00:01;;;;;;;1.83;1.00;;;29.00;99.90;;;;;;5017293;28;20225;-85
2023/09/03 10:02:27;;;;;;;1.92;1.30;;;29.70;99.90;;;;;;5016231;28;20329;-83
2023/09/03 10:04:54;;;;;;;2.20;0.90;;;30.00;99.90;;;;;;5000703;28;20262;-81
2023/09/03 10:07:20;;;;;;;1.95;1.30;;;30.40;99.90;;;;;;5003520;28;20336;-83
2023/09/03 10:09:46;;;;;;;2.95;1.50;;;30.60;99.90;;;;;;4986336;28;20214;-83
2023/09/03 10:12:13;;;;;;;1.00;1.00;;;31.20;99.90;;;;;;5026062;28;20272;-83
2023/09/03 10:14:39;;;;;;;1.10;1.00;;;31.50;99.90;;;;;;5014777;28;20307;-84
2023/09/03 10:17:07;;;;;;;1.20;1.10;;;29.60;99.90;;;;;;5007838;28;20228;-82
2023/09/03 10:19:48;;;;;;;1.58;1.48;;;28.90;99.90;;;;;;4977497;28;20196;-84
2023/09/03 10:22:16;;;;;;;1.40;1.30;;;28.30;99.90;;;;;;4976294;28;20592;-84
2023/09/03 10:24:58;;;;;;;2.13;1.45;;;27.30;99.90;;;;;;5009130;28;20556;-83
2023/09/03 10:27:27;;;;;;;1.40;1.27;;;26.50;99.90;;;;;;4994047;28;20215;-82
2023/09/03 10:29:57;;;;;;;1.95;1.00;;;26.20;99.90;;;;;;4997618;28;20226;-82
2023/09/03 10:32:24;;;;;;;1.27;1.02;;;25.80;99.90;;;;;;4995121;28;20253;-83
2023/09/03 10:34:50;;;;;;;3.63;1.50;;;25.90;99.90;;;;;;4999128;28;20199;-84
2023/09/03 10:37:16;;;;;;;1.40;1.30;;;26.20;99.90;;;;;;4996699;28;20635;-84
2023/09/03 10:39:46;;;;;;;1.50;1.38;;;25.80;99.90;;;;;;4998254;28;20315;-84
2023/09/03 10:42:17;;;;;;;2.47;1.45;;;25.40;99.90;;;;;;4978043;28;20243;-85
2023/09/03 10:44:54;;;;;;;2.05;1.10;;;25.10;99.90;;;;;;4999399;28;20313;-87
2023/09/03 10:47:20;;;;;;;2.30;1.30;;;25.50;99.90;;;;;;5017135;28;20214;-86
2023/09/03 10:49:48;;;;;;;1.92;1.13;;;25.60;99.90;;;;;;5001205;28;20195;-86
2023/09/03 10:52:33;;;;;;;2.75;1.55;;;26.60;99.90;;;;;;4972576;28;20695;-87
2023/09/03 10:55:12;;;;;;;2.53;1.33;;;26.30;99.90;;;;;;4989953;28;21178;-83
2023/09/03 10:57:38;;;;;;;1.08;0.98;;;26.00;99.90;;;;;;4997541;28;20239;-83
2023/09/03 11:00:07;;;;;;;1.23;1.08;;;25.60;99.90;;;;;;5001687;28;20211;-85
2023/09/03 11:02:34;;;;;;;1.33;1.08;;;26.00;99.90;;;;;;4997263;28;20216;-87
2023/09/03 11:05:12;;;;;;;2.35;1.15;;;25.50;99.90;;;;;;4994781;28;20275;-85
2023/09/03 11:07:39;;;;;;;3.53;1.23;;;25.40;99.90;;;;;;5031520;28;20723;-84
2023/09/03 11:10:20;;;;;;;1.23;0.85;;;26.40;99.90;;;;;;4978500;28;20306;-89
2023/09/03 11:12:48;;;;;;;2.03;1.20;;;25.90;99.90;;;;;;4998160;28;20304;-87
2023/09/03 11:15:15;;;;;;;1.02;0.93;;;26.30;99.90;;;;;;4977442;28;20297;-88
2023/09/03 11:17:55;;;;;;;0.77;0.75;;;26.60;99.90;;;;;;5002322;28;20269;-89
2023/09/03 11:20:48;;;;;;;1.55;1.05;;;27.40;99.90;;;;;;5001530;28;20214;-88
2023/09/03 11:23:14;;;;;;;1.30;1.00;;;27.70;99.90;;;;;;5013536;28;20352;-87
2023/09/03 11:25:40;;;;;;;1.13;0.90;;;27.80;99.90;;;;;;5002091;28;20222;-86
2023/09/03 11:28:11;;;;;;;0.95;0.85;;;27.20;99.90;;;;;;5018831;28;20207;-88
2023/09/03 11:30:37;;;;;;;1.20;1.10;;;26.20;99.90;;;;;;5000715;28;20213;-89
2023/09/03 11:33:03;;;;;;;0.70;0.63;;;26.00;99.90;;;;;;5049584;28;20639;-84
2023/09/03 11:35:41;;;;;;;0.90;0.90;;;26.90;99.90;;;;;;5015285;28;20341;-87
2023/09/03 11:38:07;;;;;;;2.25;1.25;;;26.60;99.90;;;;;;5051479;28;20171;-89
2023/09/03 11:40:33;;;;;;;2.13;0.90;;;26.60;99.90;;;;;;5019115;28;20198;-87
2023/09/03 11:42:59;;;;;;;0.95;0.80;;;26.90;99.90;;;;;;5018042;28;20208;-84
2023/09/03 11:45:31;;;;;;;1.25;0.90;;;26.90;99.90;;;;;;5016604;28;21058;-87
2023/09/03 11:47:58;;;;;;;1.02;0.93;;;26.80;99.90;;;;;;5050335;28;20225;-87
2023/09/03 11:50:23;;;;;;;1.83;1.02;;;26.50;99.90;;;;;;5017314;28;20217;-87
2023/09/03 11:52:55;;;;;;;0.82;0.82;;;26.20;99.90;;;;;;5014993;28;20191;-86
2023/09/03 11:55:30;;;;;;;1.75;0.95;;;26.30;99.90;;;;;;5016440;28;20218;-91
2023/09/03 11:58:00;;;;;;;1.10;0.93;;;25.90;99.90;;;;;;5049912;28;20214;-87
2023/09/03 12:00:27;;;;;;;1.52;1.10;;;25.70;99.90;;;;;;5018554;28;20715;-93
2023/09/03 12:02:54;;;;;;;1.65;0.90;;;25.90;99.90;;;;;;5018570;28;21075;-90
2023/09/03 12:05:20;;;;;;;1.17;1.00;;;26.00;99.90;;;;;;5001208;28;20321;-92
2023/09/03 12:07:47;;;;;;;1.02;0.93;;;26.00;99.90;;;;;;5001855;28;20190;-87
2023/09/03 12:10:18;;;;;;;1.83;0.88;;;25.70;99.90;;;;;;5017061;28;20378;-83
2023/09/03 12:12:44;;;;;;;1.75;0.80;;;25.70;99.90;;;;;;5017598;28;20269;-85
2023/09/03 12:15:21;;;;;;;0.90;0.63;;;25.80;99.90;;;;;;5029238;28;20238;-86
2023/09/03 12:17:47;;;;;;;1.83;0.80;;;25.90;99.90;;;;;;4988985;28;20314;-87
2023/09/03 12:20:32;;;;;;;1.05;0.90;;;26.30;99.90;;;;;;4998019;28;20197;-84
2023/09/03 12:23:18;;;;;;;1.40;0.80;;;26.20;99.90;;;;;;4997504;28;20536;-87
2023/09/03 12:25:44;;;;;;;2.03;0.95;;;26.40;99.90;;;;;;4998721;28;20269;-88
2023/09/03 12:28:10;;;;;;;1.33;0.90;;;26.00;99.90;;;;;;4996447;28;20218;-87
2023/09/03 12:30:59;;;;;;;1.75;1.10;;;25.30;99.90;;;;;;4998049;28;21419;-85
2023/09/03 12:33:46;;;;;;;1.10;1.00;;;25.10;99.90;;;;;;4996463;28;20221;-87
2023/09/03 12:36:20;;;;;;;1.60;1.33;;;24.50;99.90;;;;;;4995420;28;20277;-86
2023/09/03 12:39:04;;;;;;;1.50;1.25;;;24.60;99.90;;;;;;4995806;28;20266;-85
2023/09/03 12:41:35;;;;;;;1.17;1.08;;;24.80;99.90;;;;;;4998415;28;20226;-84
2023/09/03 12:44:08;;;;;;;0.88;0.80;;;25.00;99.90;;;;;;4996427;28;20598;-88
2023/09/03 12:46:35;;;;;;;1.02;0.90;;;25.40;99.90;;;;;;4997962;28;20311;-88
2023/09/03 12:49:05;;;;;;;1.13;1.00;;;24.60;99.90;;;;;;4980628;28;20234;-83
2023/09/03 12:51:34;;;;;;;1.10;1.00;;;24.40;99.90;;;;;;4974360;28;20227;-87